Time;durP1;ratioP1;P1;durP2;ratioP2;P2;SDS_P1;SDS_P2;PMS_P1;PMS_P2;Temp;Humidity;BMP_temperature;BMP_pressure;BME280_temperature;BME280_humidity;BME280_pressure;Samples;Min_cycle;Max_cycle;Signal;HPM_P1;HPM_P2
2023/06/10 00:00:08;;;;;;;;;;;18.20;99.90;;;;;;5050280;28;19925;-66
2023/06/10 00:02:42;;;;;;;;;;;18.20;99.90;;;;;;5049522;28;19950;-66
2023/06/10 00:05:16;;;;;;;;;;;18.10;99.90;;;;;;5050482;28;20304;-65
2023/06/10 00:07:43;;;;;;;;;;;18.10;99.90;;;;;;5083952;28;19925;-66
2023/06/10 00:10:15;;;;;;;;;;;18.10;99.90;;;;;;5051897;28;20411;-65
2023/06/10 00:12:47;;;;;;;;;;;18.10;99.90;;;;;;5051509;28;19931;-65
2023/06/10 00:15:18;;;;;;;;;;;18.00;99.90;;;;;;5051543;28;19932;-66
2023/06/10 00:17:45;;;;;;;;;;;18.00;99.90;;;;;;5051328;28;19964;-66
2023/06/10 00:20:17;;;;;;;;;;;18.00;99.90;;;;;;5051583;28;19925;-66
2023/06/10 00:22:49;;;;;;;;;;;17.90;99.90;;;;;;5042180;28;19929;-65
2023/06/10 00:25:16;;;;;;;;;;;17.80;99.90;;;;;;5082342;28;20032;-65
2023/06/10 00:27:48;;;;;;;;;;;17.70;99.90;;;;;;5049542;28;19975;-65
2023/06/10 00:30:21;;;;;;;;;;;17.50;99.90;;;;;;5044860;28;19980;-65
2023/06/10 00:32:53;;;;;;;;;;;17.40;99.90;;;;;;5046936;28;20029;-65
2023/06/10 00:35:25;;;;;;;;;;;17.30;99.90;;;;;;5048369;28;20019;-65
2023/06/10 00:37:59;;;;;;;;;;;17.20;99.90;;;;;;5049966;28;20007;-65
2023/06/10 00:40:33;;;;;;;;;;;17.10;99.90;;;;;;5050090;28;20471;-65
2023/06/10 00:43:05;;;;;;;;;;;17.00;99.90;;;;;;5083727;28;19974;-65
2023/06/10 00:45:37;;;;;;;;;;;16.90;99.90;;;;;;5058300;28;19925;-65
2023/06/10 00:48:09;;;;;;;;;;;16.80;99.90;;;;;;5067182;28;19925;-65
2023/06/10 00:50:41;;;;;;;;;;;16.80;99.90;;;;;;5083239;28;19931;-66
2023/06/10 00:53:13;;;;;;;;;;;16.70;99.90;;;;;;5091005;28;19931;-65
2023/06/10 00:55:45;;;;;;;;;;;16.60;99.90;;;;;;5052865;28;19931;-66
2023/06/10 00:58:17;;;;;;;;;;;16.60;99.90;;;;;;5053073;28;20312;-65
2023/06/10 01:00:45;;;;;;;;;;;16.60;99.90;;;;;;5052464;28;20338;-67
2023/06/10 01:03:17;;;;;;;;;;;16.60;99.90;;;;;;5031241;28;20366;-65
2023/06/10 01:05:55;;;;;;;;;;;16.50;99.90;;;;;;5038754;28;19925;-65
2023/06/10 01:08:35;;;;;;;;;;;16.50;99.90;;;;;;5053338;28;19979;-65
2023/06/10 01:11:08;;;;;;;;;;;16.40;99.90;;;;;;5053679;28;19925;-65
2023/06/10 01:13:36;;;;;;;;;;;16.40;99.90;;;;;;5086738;28;19928;-65
2023/06/10 01:16:03;;;;;;;;;;;16.30;99.90;;;;;;5086591;28;19928;-67
2023/06/10 01:18:30;;;;;;;;;;;16.30;99.90;;;;;;5053341;28;19925;-65
2023/06/10 01:20:57;;;;;;;;;;;16.20;99.90;;;;;;5086589;28;19964;-65
2023/06/10 01:23:24;;;;;;;;;;;16.20;99.90;;;;;;5054362;28;19932;-65
2023/06/10 01:26:00;;;;;;;;;;;16.10;99.90;;;;;;5086682;28;20035;-66
2023/06/10 01:28:41;;;;;;;;;;;16.10;99.90;;;;;;5086595;28;20015;-66
2023/06/10 01:31:13;;;;;;;;;;;16.10;99.90;;;;;;5054298;28;19925;-65
2023/06/10 01:33:51;;;;;;;;;;;16.10;99.90;;;;;;5065652;28;20349;-65
2023/06/10 01:36:18;;;;;;;;;;;16.10;99.90;;;;;;5084849;28;20410;-65
2023/06/10 01:38:46;;;;;;;;;;;16.10;99.90;;;;;;5036223;28;20347;-65
2023/06/10 01:41:18;;;;;;;;;;;16.00;99.90;;;;;;5052664;28;19925;-65
2023/06/10 01:43:50;;;;;;;;;;;16.00;99.90;;;;;;5031086;28;20556;-65
2023/06/10 01:46:22;;;;;;;;;;;16.00;99.90;;;;;;5053943;28;19931;-65
2023/06/10 01:48:55;;;;;;;;;;;16.00;99.90;;;;;;5053670;28;19933;-65
2023/06/10 01:51:27;;;;;;;;;;;16.00;99.90;;;;;;5053624;28;19947;-65
2023/06/10 01:53:59;;;;;;;;;;;16.00;99.90;;;;;;5052425;28;19978;-66
2023/06/10 01:56:31;;;;;;;;;;;16.10;99.90;;;;;;5063252;28;20024;-65
2023/06/10 01:59:03;;;;;;;;;;;16.10;99.90;;;;;;5053103;28;19951;-65
2023/06/10 02:01:35;;;;;;;;;;;16.20;99.90;;;;;;5043669;28;19924;-67
2023/06/10 02:04:09;;;;;;;;;;;16.20;99.90;;;;;;5042105;28;19925;-66
2023/06/10 02:06:37;;;;;;;;;;;16.30;99.90;;;;;;5040383;28;19929;-65
2023/06/10 02:09:04;;;;;;;;;;;16.30;99.90;;;;;;5085468;28;20303;-65
2023/06/10 02:11:36;;;;;;;;;;;16.40;99.90;;;;;;5052334;28;20372;-65
2023/06/10 02:14:02;;;;;;;;;;;16.40;99.90;;;;;;5052134;28;19924;-67
2023/06/10 02:16:34;;;;;;;;;;;16.40;99.90;;;;;;5052030;28;19933;-65
2023/06/10 02:19:06;;;;;;;;;;;16.50;99.90;;;;;;5035579;28;19925;-65
2023/06/10 02:21:38;;;;;;;;;;;16.40;99.90;;;;;;5063639;28;19931;-65
2023/06/10 02:24:10;;;;;;;;;;;16.40;99.90;;;;;;5051503;28;19929;-65
2023/06/10 02:26:42;;;;;;;;;;;16.50;99.90;;;;;;5053044;28;20192;-65
2023/06/10 02:29:14;;;;;;;;;;;16.40;99.90;;;;;;5052151;28;19929;-65
2023/06/10 02:31:46;;;;;;;;;;;16.40;99.90;;;;;;5082738;28;20392;-65
2023/06/10 02:34:13;;;;;;;;;;;16.40;99.90;;;;;;5032563;28;20390;-65
2023/06/10 02:36:45;;;;;;;;;;;16.40;99.90;;;;;;5033365;28;19928;-65
2023/06/10 02:39:19;;;;;;;;;;;16.30;99.90;;;;;;5051595;28;19970;-65
2023/06/10 02:41:51;;;;;;;;;;;16.30;99.90;;;;;;5036484;28;19941;-65
2023/06/10 02:44:23;;;;;;;;;;;16.30;99.90;;;;;;5051196;28;19925;-65
2023/06/10 02:46:50;;;;;;;;;;;16.30;99.90;;;;;;5050324;28;20024;-65
2023/06/10 02:49:22;;;;;;;;;;;16.30;99.90;;;;;;5060532;28;19982;-65
2023/06/10 02:51:54;;;;;;;;;;;16.20;99.90;;;;;;5049040;28;20744;-65
2023/06/10 02:54:26;;;;;;;;;;;16.20;99.90;;;;;;5051325;28;20357;-65
2023/06/10 02:56:55;;;;;;;;;;;16.10;99.90;;;;;;5084630;28;19933;-65
2023/06/10 02:59:26;;;;;;;;;;;16.00;99.90;;;;;;5084817;28;19978;-65
2023/06/10 03:02:01;;;;;;;;;;;16.00;99.90;;;;;;5051424;28;19982;-65
2023/06/10 03:04:30;;;;;;;;;;;15.90;99.90;;;;;;5084717;28;19931;-65
2023/06/10 03:07:08;;;;;;;;;;;15.90;99.90;;;;;;5051060;28;20027;-65
2023/06/10 03:09:40;;;;;;;;;;;15.80;99.90;;;;;;5051201;28;20015;-65
2023/06/10 03:12:10;;;;;;;;;;;15.70;99.90;;;;;;5066904;28;20407;-65
2023/06/10 03:14:45;;;;;;;;;;;15.60;99.90;;;;;;5050910;28;19929;-65
2023/06/10 03:17:17;;;;;;;;;;;15.60;99.90;;;;;;5048185;28;20522;-65
2023/06/10 03:19:49;;;;;;;;;;;15.50;99.90;;;;;;5051466;28;19924;-65
2023/06/10 03:22:16;;;;;;;;;;;15.50;99.90;;;;;;5034685;28;19955;-65
2023/06/10 03:24:57;;;;;;;;;;;15.50;99.90;;;;;;5065026;28;20461;-65
2023/06/10 03:27:31;;;;;;;;;;;15.40;99.90;;;;;;5035133;28;19932;-65
2023/06/10 03:30:06;;;;;;;;;;;15.40;99.90;;;;;;5050612;28;19928;-65
2023/06/10 03:32:40;;;;;;;;;;;15.40;99.90;;;;;;5048701;28;19924;-65
2023/06/10 03:35:15;;;;;;;;;;;15.40;99.90;;;;;;5051058;28;20021;-65
2023/06/10 03:37:47;;;;;;;;;;;15.40;99.90;;;;;;5050944;28;19925;-65
2023/06/10 03:40:19;;;;;;;;;;;15.30;99.90;;;;;;5065502;28;19979;-65
2023/06/10 03:42:51;;;;;;;;;;;15.20;99.90;;;;;;5043434;28;19924;-65
2023/06/10 03:45:23;;;;;;;;;;;15.20;99.90;;;;;;5045098;28;20311;-65
2023/06/10 03:47:56;;;;;;;;;;;15.20;99.90;;;;;;5068081;28;19925;-65
2023/06/10 03:50:36;;;;;;;;;;;15.20;99.90;;;;;;5079510;28;20364;-65
2023/06/10 03:53:07;;;;;;;;;;;15.20;99.90;;;;;;5084408;28;20047;-65
2023/06/10 03:55:41;;;;;;;;;;;15.20;99.90;;;;;;5068325;28;20273;-65
2023/06/10 03:58:17;;;;;;;;;;;15.20;99.90;;;;;;5064599;28;19925;-65
2023/06/10 04:00:45;;;;;;;;;;;15.20;99.90;;;;;;5056391;28;20015;-65
2023/06/10 04:03:15;;;;;;;;;;;15.30;99.90;;;;;;5048883;28;20305;-65
2023/06/10 04:05:50;;;;;;;;;;;15.40;99.90;;;;;;5046463;28;20038;-65
2023/06/10 04:08:23;;;;;;;;;;;15.40;99.90;;;;;;5063751;28;19971;-65
2023/06/10 04:10:55;;;;;;;;;;;15.50;99.90;;;;;;5028576;28;20021;-65
2023/06/10 04:13:27;;;;;;;;;;;15.50;99.90;;;;;;5081892;28;19951;-65
2023/06/10 04:15:59;;;;;;;;;;;15.40;99.90;;;;;;5060597;28;20430;-65
2023/06/10 04:18:26;;;;;;;;;;;15.50;99.90;;;;;;5074986;28;19964;-65
2023/06/10 04:20:56;;;;;;;;;;;15.50;99.90;;;;;;5041471;28;19933;-65
2023/06/10 04:23:29;;;;;;;;;;;15.50;99.90;;;;;;5045452;28;19929;-65
2023/06/10 04:26:01;;;;;;;;;;;15.50;99.90;;;;;;5048596;28;20034;-65
2023/06/10 04:28:34;;;;;;;;;;;15.60;99.90;;;;;;5047951;28;20019;-65
2023/06/10 04:31:05;;;;;;;;;;;15.60;99.90;;;;;;5048043;28;19931;-65
2023/06/10 04:33:38;;;;;;;;;;;15.60;99.90;;;;;;5046542;28;19955;-65
2023/06/10 04:36:06;;;;;;;;;;;15.70;99.90;;;;;;5044726;28;19929;-65
2023/06/10 04:38:38;;;;;;;;;;;15.80;99.90;;;;;;5042418;28;20015;-65
2023/06/10 04:41:05;;;;;;;;;;;15.80;99.90;;;;;;5078425;28;19932;-65
2023/06/10 04:43:37;;;;;;;;;;;15.90;99.90;;;;;;5040470;28;20020;-65
2023/06/10 04:46:04;;;;;;;;;;;15.90;99.90;;;;;;5044726;28;19928;-65
2023/06/10 04:48:37;;;;;;;;;;;15.80;99.90;;;;;;5047907;28;19931;-65
2023/06/10 04:51:09;;;;;;;;;;;15.80;99.90;;;;;;5046213;28;20375;-64
2023/06/10 04:53:36;;;;;;;;;;;15.90;99.90;;;;;;5045408;28;19926;-65
2023/06/10 04:56:07;;;;;;;;;;;15.90;99.90;;;;;;5048533;28;19929;-65
2023/06/10 04:58:34;;;;;;;;;;;15.90;99.90;;;;;;5048029;28;19952;-64
2023/06/10 05:01:06;;;;;;;;;;;15.90;99.90;;;;;;5047530;28;19933;-65
2023/06/10 05:03:33;;;;;;;;;;;16.00;99.90;;;;;;5048315;28;20007;-65
2023/06/10 05:06:00;;;;;;;;;;;16.00;99.90;;;;;;5047520;28;20020;-65
2023/06/10 05:08:33;;;;;;;;;;;16.00;99.90;;;;;;5062752;28;19929;-65
2023/06/10 05:11:04;;;;;;;;;;;16.10;99.90;;;;;;5047472;28;19928;-65
2023/06/10 05:13:36;;;;;;;;;;;16.20;99.90;;;;;;5048952;28;20323;-65
2023/06/10 05:16:09;;;;;;;;;;;16.20;99.90;;;;;;5049830;28;19929;-65
2023/06/10 05:18:41;;;;;;;;;;;16.20;99.90;;;;;;5046276;28;19925;-65
2023/06/10 05:21:13;;;;;;;;;;;16.20;99.90;;;;;;5049053;28;19956;-65
2023/06/10 05:23:45;;;;;;;;;;;16.30;99.90;;;;;;5049219;28;19939;-65
2023/06/10 05:26:17;;;;;;;;;;;16.30;99.90;;;;;;5081156;28;20020;-65
2023/06/10 05:28:48;;;;;;;;;;;16.40;99.90;;;;;;5049295;28;19935;-65
2023/06/10 05:31:15;;;;;;;;;;;16.40;99.90;;;;;;5049883;28;19928;-65
2023/06/10 05:33:42;;;;;;;;;;;16.50;99.90;;;;;;5050393;28;20388;-65
2023/06/10 05:36:14;;;;;;;;;;;16.50;99.90;;;;;;5050714;28;19951;-65
2023/06/10 05:38:46;;;;;;;;;;;16.60;99.90;;;;;;5046543;28;19932;-65
2023/06/10 05:41:12;;;;;;;;;;;16.70;99.90;;;;;;5053126;28;20404;-65
2023/06/10 05:43:44;;;;;;;;;;;16.70;99.90;;;;;;5050259;28;20011;-65
2023/06/10 05:46:11;;;;;;;;;;;16.80;99.90;;;;;;5054494;28;19933;-65
2023/06/10 05:48:43;;;;;;;;;;;16.90;99.90;;;;;;5054323;28;19924;-66
2023/06/10 05:51:15;;;;;;;;;;;16.90;99.90;;;;;;5053155;28;19936;-66
2023/06/10 05:53:47;;;;;;;;;;;16.90;99.90;;;;;;5053935;28;20023;-65
2023/06/10 05:56:14;;;;;;;;;;;16.90;99.90;;;;;;5053782;28;19931;-65
2023/06/10 05:58:46;;;;;;;;;;;17.00;99.90;;;;;;5054246;28;19931;-65
2023/06/10 06:01:18;;;;;;;;;;;17.00;99.90;;;;;;5051190;28;19931;-65
2023/06/10 06:03:50;;;;;;;;;;;17.10;99.90;;;;;;5054024;28;20323;-65
2023/06/10 06:06:22;;;;;;;;;;;17.10;99.90;;;;;;5052614;28;20015;-65
2023/06/10 06:08:53;;;;;;;;;;;17.20;99.90;;;;;;5036654;28;20011;-65
2023/06/10 06:11:26;;;;;;;;;;;17.30;99.90;;;;;;5053811;28;20024;-66
2023/06/10 06:13:58;;;;;;;;;;;17.40;99.90;;;;;;5051612;28;20304;-65
2023/06/10 06:16:30;;;;;;;;;;;17.50;99.90;;;;;;5051744;28;20401;-66
2023/06/10 06:19:01;;;;;;;;;;;17.50;99.90;;;;;;5053756;28;19982;-65
2023/06/10 06:21:33;;;;;;;;;;;17.60;99.90;;;;;;5084341;28;19931;-66
2023/06/10 06:24:06;;;;;;;;;;;17.70;99.90;;;;;;5049805;28;19933;-65
2023/06/10 06:26:38;;;;;;;;;;;17.80;99.90;;;;;;5036216;28;20423;-66
2023/06/10 06:29:04;;;;;;;;;;;17.80;99.90;;;;;;5052341;28;19929;-65
2023/06/10 06:31:36;;;;;;;;;;;17.90;99.90;;;;;;5036112;28;20409;-65
2023/06/10 06:34:08;;;;;;;;;;;18.00;99.90;;;;;;5040981;28;20353;-65
2023/06/10 06:36:40;;;;;;;;;;;18.00;99.90;;;;;;5051577;28;19925;-66
2023/06/10 06:39:12;;;;;;;;;;;18.10;99.90;;;;;;5045092;28;19925;-65
2023/06/10 06:41:44;;;;;;;;;;;18.20;99.90;;;;;;5034991;28;20371;-65
2023/06/10 06:44:11;;;;;;;;;;;18.30;99.90;;;;;;5053363;28;20019;-66
2023/06/10 06:46:45;;;;;;;;;;;18.40;99.90;;;;;;5050361;28;19935;-65
2023/06/10 06:49:17;;;;;;;;;;;18.50;99.90;;;;;;5051897;28;19960;-66
2023/06/10 06:51:49;;;;;;;;;;;18.50;99.90;;;;;;5052915;28;20007;-66
2023/06/10 06:54:21;;;;;;;;;;;18.60;99.90;;;;;;5053214;28;19929;-66
2023/06/10 06:56:47;;;;;;;;;;;18.70;99.90;;;;;;5052955;28;19929;-65
2023/06/10 06:59:19;;;;;;;;;;;18.70;99.90;;;;;;5067583;28;20384;-66
2023/06/10 07:01:53;;;;;;;;;;;18.80;99.90;;;;;;5053963;28;19970;-66
2023/06/10 07:04:25;;;;;;;;;;;18.90;99.90;;;;;;5048657;28;19929;-65
2023/06/10 07:06:57;;;;;;;;;;;19.00;99.90;;;;;;5052595;28;20400;-67
2023/06/10 07:09:24;;;;;;;;;;;19.10;99.90;;;;;;5049345;28;19940;-66
2023/06/10 07:11:56;;;;;;;;;;;19.20;99.90;;;;;;5037010;28;19929;-66
2023/06/10 07:14:28;;;;;;;;;;;19.30;99.90;;;;;;5066614;28;19931;-65
2023/06/10 07:17:00;;;;;;;;;;;19.40;99.90;;;;;;5042575;28;20380;-66
2023/06/10 07:19:32;;;;;;;;;;;19.60;99.90;;;;;;5066826;28;19925;-64
2023/06/10 07:21:58;;;;;;;;;;;19.60;99.90;;;;;;5048296;28;19975;-66
2023/06/10 07:24:30;;;;;;;;;;;19.80;99.90;;;;;;5050002;28;20289;-65
2023/06/10 07:27:02;;;;;;;;;;;19.80;99.90;;;;;;5049440;28;19928;-65
2023/06/10 07:29:29;;;;;;;;;;;19.90;99.90;;;;;;5048582;28;19929;-65
2023/06/10 07:32:02;;;;;;;;;;;20.00;99.90;;;;;;5050703;28;19937;-65
2023/06/10 07:34:34;;;;;;;;;;;20.10;99.90;;;;;;5048398;28;19925;-65
2023/06/10 07:37:06;;;;;;;;;;;20.20;99.90;;;;;;5045684;28;19925;-65
2023/06/10 07:39:38;;;;;;;;;;;20.30;99.90;;;;;;5047840;28;19925;-65
2023/06/10 07:42:10;;;;;;;;;;;20.40;99.90;;;;;;5057240;28;19925;-65
2023/06/10 07:44:42;;;;;;;;;;;20.40;99.90;;;;;;5049566;28;19929;-65
2023/06/10 07:47:14;;;;;;;;;;;20.50;99.90;;;;;;5048457;28;19932;-65
2023/06/10 07:49:45;;;;;;;;;;;20.60;99.90;;;;;;5050167;28;19937;-64
2023/06/10 07:52:17;;;;;;;;;;;20.60;99.90;;;;;;5048734;28;19924;-65
2023/06/10 07:54:49;;;;;;;;;;;20.70;99.90;;;;;;5079008;28;19928;-65
2023/06/10 07:57:21;;;;;;;;;;;20.70;99.90;;;;;;5048679;28;19928;-65
2023/06/10 07:59:54;;;;;;;;;;;20.80;99.90;;;;;;5078750;28;19964;-65
2023/06/10 08:02:26;;;;;;;;;;;20.80;99.90;;;;;;5046706;28;19932;-65
2023/06/10 08:04:58;;;;;;;;;;;20.90;99.90;;;;;;5048468;28;19931;-65
2023/06/10 08:07:30;;;;;;;;;;;21.00;99.90;;;;;;5048677;28;19935;-65
2023/06/10 08:10:03;;;;;;;;;;;21.10;99.90;;;;;;5046819;28;19983;-65
2023/06/10 08:12:35;;;;;;;;;;;21.30;99.90;;;;;;5047505;28;19925;-65
2023/06/10 08:15:07;;;;;;;;;;;21.30;99.90;;;;;;5047843;28;20490;-65
2023/06/10 08:17:34;;;;;;;;;;;21.30;99.90;;;;;;5049400;28;20728;-65
2023/06/10 08:20:06;;;;;;;;;;;21.40;99.90;;;;;;5043684;28;20375;-65
2023/06/10 08:22:33;;;;;;;;;;;21.50;99.90;;;;;;5047419;28;19925;-64
2023/06/10 08:25:05;;;;;;;;;;;21.60;99.90;;;;;;5046836;28;19928;-65
2023/06/10 08:27:37;;;;;;;;;;;21.70;99.90;;;;;;5059228;28;20444;-65
2023/06/10 08:30:10;;;;;;;;;;;21.80;99.90;;;;;;5048566;28;19928;-65
2023/06/10 08:32:42;;;;;;;;;;;21.90;99.90;;;;;;5048106;28;19971;-65
2023/06/10 08:35:14;;;;;;;;;;;21.90;99.90;;;;;;5047360;28;19968;-65
2023/06/10 08:37:40;;;;;;;;;;;21.90;99.90;;;;;;5047205;28;19925;-65
2023/06/10 08:40:08;;;;;;;;;;;22.00;99.90;;;;;;5048241;28;20007;-65
2023/06/10 08:42:44;;;;;;;;;;;22.00;99.90;;;;;;5049959;28;19982;-65
2023/06/10 08:45:19;;;;;;;;;;;22.10;99.90;;;;;;5046930;28;19925;-65
2023/06/10 08:47:52;;;;;;;;;;;22.30;99.90;;;;;;5048747;28;19936;-65
2023/06/10 08:50:26;;;;;;;;;;;22.40;99.90;;;;;;5047119;28;19932;-65
2023/06/10 08:52:58;;;;;;;;;;;22.60;99.90;;;;;;5023555;28;20385;-65
2023/06/10 08:55:31;;;;;;;;;;;22.60;99.90;;;;;;5047623;28;19925;-65
2023/06/10 08:58:03;;;;;;;;;;;22.80;99.90;;;;;;5046950;28;20401;-65
2023/06/10 09:00:36;;;;;;;;;;;22.80;99.90;;;;;;5047373;28;19933;-65
2023/06/10 09:03:09;;;;;;;;;;;22.90;99.90;;;;;;5064685;22;19925;-66
2023/06/10 09:05:41;;;;;;;;;;;22.90;99.90;;;;;;5046604;28;19960;-63
2023/06/10 09:08:15;;;;;;;;;;;23.00;99.90;;;;;;5058621;28;19925;-63
2023/06/10 09:10:47;;;;;;;;;;;23.10;99.90;;;;;;5057926;28;19925;-64
2023/06/10 09:13:19;;;;;;;;;;;23.10;99.90;;;;;;5054724;28;19933;-64
2023/06/10 09:15:45;;;;;;;;;;;23.20;99.90;;;;;;5055580;28;19929;-65
2023/06/10 09:18:17;;;;;;;;;;;23.30;99.90;;;;;;5059193;28;19928;-66
2023/06/10 09:20:49;;;;;;;;;;;23.40;99.90;;;;;;5056687;28;19929;-63
2023/06/10 09:23:21;;;;;;;;;;;23.60;99.90;;;;;;5059445;28;19925;-64
2023/06/10 09:25:57;;;;;;;;;;;23.70;99.90;;;;;;5056794;28;19931;-64
2023/06/10 09:28:29;;;;;;;;;;;23.90;99.90;;;;;;5059725;28;19932;-64
2023/06/10 09:31:02;;;;;;;;;;;24.00;99.90;;;;;;5057130;28;19928;-64
2023/06/10 09:33:28;;;;;;;;;;;24.10;99.90;;;;;;5059023;28;20024;-64
2023/06/10 09:36:01;;;;;;;;;;;24.20;99.90;;;;;;5057813;28;20317;-64
2023/06/10 09:38:34;;;;;;;;;;;24.30;99.90;;;;;;5072229;28;19925;-64
2023/06/10 09:41:06;;;;;;;;;;;24.40;99.90;;;;;;5049645;28;19929;-64
2023/06/10 09:43:39;;;;;;;;;;;24.50;99.90;;;;;;5046617;28;19968;-64
2023/06/10 09:46:05;;;;;;;;;;;24.60;99.90;;;;;;5027313;28;19936;-64
2023/06/10 09:48:41;;;;;;;;;;;24.50;99.90;;;;;;5059553;28;19939;-64
2023/06/10 09:51:11;;;;;;;;;;;24.50;99.90;;;;;;5044360;28;19982;-66
2023/06/10 09:53:47;;;;;;;;;;;24.50;99.90;;;;;;5046093;28;19972;-64
2023/06/10 09:56:20;;;;;;;;;;;24.50;99.90;;;;;;5060102;28;19978;-66
2023/06/10 09:58:53;;;;;;;;;;;24.40;99.90;;;;;;5054815;28;19936;-66
2023/06/10 10:01:24;;;;;;;;;;;24.30;99.90;;;;;;5057583;28;19924;-64
2023/06/10 10:03:56;;;;;;;;;;;24.20;99.90;;;;;;5056299;28;19932;-63
2023/06/10 10:06:29;;;;;;;;;;;24.20;99.90;;;;;;5041491;28;20403;-64
2023/06/10 10:09:03;;;;;;;;;;;24.30;99.90;;;;;;5049214;28;19990;-64
2023/06/10 10:11:35;;;;;;;;;;;24.30;99.90;;;;;;5052878;28;19928;-66
2023/06/10 10:14:07;;;;;;;;;;;24.20;99.90;;;;;;5045762;28;19964;-64
2023/06/10 10:16:40;;;;;;;;;;;24.30;99.90;;;;;;5037188;28;19925;-65
2023/06/10 10:19:25;;;;;;;;;;;24.60;99.90;;;;;;5058027;28;20689;-64
2023/06/10 10:22:11;;;;;;;;;;;24.90;99.90;;;;;;5055892;28;19930;-64
2023/06/10 10:24:48;;;;;;;;;;;25.20;99.90;;;;;;5060451;28;20042;-64
2023/06/10 10:27:24;;;;;;;;;;;25.50;99.90;;;;;;5055038;28;19925;-64
2023/06/10 10:29:57;;;;;;;;;;;25.60;99.90;;;;;;5059940;28;19925;-64
2023/06/10 10:32:31;;;;;;;;;;;25.40;99.90;;;;;;5073343;28;19924;-64
2023/06/10 10:35:05;;;;;;;;;;;25.40;99.90;;;;;;5068827;28;20003;-64
2023/06/10 10:37:37;;;;;;;;;;;25.60;99.90;;;;;;5058198;28;19924;-64
2023/06/10 10:40:10;;;;;;;;;;;25.80;99.90;;;;;;5063097;28;19929;-64
2023/06/10 10:42:42;;;;;;;;;;;26.00;99.90;;;;;;5058365;28;19929;-64
2023/06/10 10:45:13;;;;;;;;;;;26.10;99.90;;;;;;5059302;28;20383;-64
2023/06/10 10:47:46;;;;;;;;;;;26.30;99.90;;;;;;5063512;28;20672;-65
2023/06/10 10:50:18;;;;;;;;;;;26.40;99.90;;;;;;5059381;28;19936;-64
2023/06/10 10:52:56;;;;;;;;;;;26.50;99.90;;;;;;5051430;28;19968;-64
2023/06/10 10:55:23;;;;;;;;;;;26.50;99.50;;;;;;5041975;28;19935;-64
2023/06/10 10:57:55;;;;;;;;;;;26.50;99.90;;;;;;5050126;28;20319;-64
2023/06/10 11:00:31;;;;;;;;;;;26.70;99.90;;;;;;5057347;28;19931;-64
2023/06/10 11:03:03;;;;;;;;;;;26.70;99.80;;;;;;5063062;28;19928;-64
2023/06/10 11:05:41;;;;;;;;;;;26.60;99.50;;;;;;5057288;28;19929;-64
2023/06/10 11:08:13;;;;;;;;;;;26.30;98.90;;;;;;5055076;28;19929;-64
2023/06/10 11:10:54;;;;;;;;;;;26.10;99.40;;;;;;5059198;28;20459;-64
2023/06/10 11:13:27;;;;;;;;;;;26.20;99.10;;;;;;5046528;28;19931;-64
2023/06/10 11:15:58;;;;;;;;;;;26.30;98.70;;;;;;5054040;28;19936;-64
2023/06/10 11:18:35;;;;;;;;;;;26.40;98.20;;;;;;5054216;28;20023;-64
2023/06/10 11:21:07;;;;;;;;;;;26.20;99.00;;;;;;5053717;28;19975;-64
2023/06/10 11:23:39;;;;;;;;;;;26.00;99.30;;;;;;5042531;28;19932;-64
2023/06/10 11:26:14;;;;;;;;;;;25.90;99.40;;;;;;5060991;28;19925;-64
2023/06/10 11:28:46;;;;;;;;;;;26.00;98.30;;;;;;5044818;28;19931;-64
2023/06/10 11:31:28;;;;;;;;;;;26.30;98.60;;;;;;5058422;28;19924;-66
2023/06/10 11:34:04;;;;;;;;;;;26.60;97.90;;;;;;5065277;28;19929;-66
2023/06/10 11:36:44;;;;;;;;;;;26.80;97.80;;;;;;5052313;28;20342;-66
2023/06/10 11:39:17;;;;;;;;;;;27.00;96.30;;;;;;5058146;28;20015;-64
2023/06/10 11:41:45;;;;;;;;;;;27.20;96.00;;;;;;5058528;28;20460;-66
2023/06/10 11:44:13;;;;;;;;;;;27.40;95.80;;;;;;5056150;28;20031;-64
2023/06/10 11:46:42;;;;;;;;;;;27.60;94.90;;;;;;5045388;28;20020;-66
2023/06/10 11:49:14;;;;;;;;;;;27.70;95.30;;;;;;5051454;28;20320;-66
2023/06/10 11:51:49;;;;;;;;;;;27.70;94.70;;;;;;5057098;28;20316;-64
2023/06/10 11:54:17;;;;;;;;;;;27.70;94.90;;;;;;5028391;28;19932;-64
2023/06/10 11:56:48;;;;;;;;;;;27.50;94.60;;;;;;5054225;28;19931;-64
2023/06/10 11:59:16;;;;;;;;;;;27.60;94.70;;;;;;5058569;28;19931;-64
2023/06/10 12:01:47;;;;;;;;;;;27.80;94.40;;;;;;5060056;28;19948;-64
2023/06/10 12:04:19;;;;;;;;;;;27.90;93.20;;;;;;5052768;28;19936;-64
2023/06/10 12:06:51;;;;;;;;;;;28.00;92.70;;;;;;5059957;28;19924;-64
2023/06/10 12:09:23;;;;;;;;;;;28.20;92.80;;;;;;5052615;28;19933;-64
2023/06/10 12:11:51;;;;;;;;;;;28.20;92.20;;;;;;5053919;28;20343;-64
2023/06/10 12:14:41;;;;;;;;;;;27.90;92.70;;;;;;5029737;28;19929;-64
2023/06/10 12:17:08;;;;;;;;;;;27.80;93.50;;;;;;5050225;28;19928;-64
2023/06/10 12:19:40;;;;;;;;;;;27.80;93.60;;;;;;5051385;28;19928;-64
2023/06/10 12:22:11;;;;;;;;;;;27.70;93.50;;;;;;5050523;28;20055;-64
2023/06/10 12:24:59;;;;;;;;;;;27.70;93.00;;;;;;5058912;28;19925;-64
2023/06/10 12:27:31;;;;;;;;;;;27.80;92.70;;;;;;5059304;28;19924;-64
2023/06/10 12:30:05;;;;;;;;;;;28.00;92.80;;;;;;5055150;28;19924;-64
2023/06/10 12:32:41;;;;;;;;;;;28.30;91.20;;;;;;5055679;28;19924;-64
2023/06/10 12:35:08;;;;;;;;;;;28.50;91.30;;;;;;5046708;28;21288;-63
2023/06/10 12:37:36;;;;;;;;;;;28.80;91.80;;;;;;5053888;28;20376;-63
2023/06/10 12:40:09;;;;;;;;;;;28.80;91.30;;;;;;5043512;28;20302;-64
2023/06/10 12:42:41;;;;;;;;;;;28.90;91.30;;;;;;5057204;28;19932;-64
2023/06/10 12:45:13;;;;;;;;;;;29.10;91.20;;;;;;5057019;28;20285;-64
2023/06/10 12:47:44;;;;;;;;;;;29.10;91.20;;;;;;5051929;28;20010;-64
2023/06/10 12:50:16;;;;;;;;;;;29.00;91.10;;;;;;5060538;28;19997;-64
2023/06/10 12:52:48;;;;;;;;;;;29.00;90.00;;;;;;5060237;28;20419;-64
2023/06/10 12:55:19;;;;;;;;;;;29.00;90.80;;;;;;5056096;28;19925;-64
2023/06/10 12:57:51;;;;;;;;;;;29.00;90.10;;;;;;5055627;28;19947;-64
2023/06/10 13:00:25;;;;;;;;;;;29.00;89.00;;;;;;5061185;28;20398;-64
2023/06/10 13:03:00;;;;;;;;;;;29.00;89.30;;;;;;5056593;28;19924;-64
2023/06/10 13:05:32;;;;;;;;;;;28.80;89.40;;;;;;5062113;28;19931;-64
2023/06/10 13:08:04;;;;;;;;;;;28.90;89.70;;;;;;5067189;28;19925;-64
2023/06/10 13:10:36;;;;;;;;;;;28.80;88.60;;;;;;5060821;28;19924;-62
2023/06/10 13:13:09;;;;;;;;;;;28.90;91.10;;;;;;5062627;28;19933;-64
2023/06/10 13:15:41;;;;;;;;;;;28.90;90.70;;;;;;5062476;28;20024;-64
2023/06/10 13:18:13;;;;;;;;;;;29.00;90.40;;;;;;5064546;28;19932;-63
2023/06/10 13:20:45;;;;;;;;;;;29.10;90.40;;;;;;5057610;28;19932;-64
2023/06/10 13:23:17;;;;;;;;;;;29.20;89.70;;;;;;5056778;28;19943;-65
2023/06/10 13:25:48;;;;;;;;;;;29.20;88.60;;;;;;5055681;28;19924;-66
2023/06/10 13:28:20;;;;;;;;;;;29.10;89.50;;;;;;5074221;28;19929;-66
2023/06/10 13:30:52;;;;;;;;;;;29.30;89.00;;;;;;5066146;28;20323;-66
2023/06/10 13:33:23;;;;;;;;;;;29.40;89.00;;;;;;5061097;28;19925;-66
2023/06/10 13:35:55;;;;;;;;;;;29.40;88.70;;;;;;5059931;28;20002;-66
2023/06/10 13:38:27;;;;;;;;;;;29.50;87.90;;;;;;5062355;28;19924;-66
2023/06/10 13:40:58;;;;;;;;;;;29.70;87.50;;;;;;5062340;28;19925;-66
2023/06/10 13:43:30;;;;;;;;;;;29.80;87.00;;;;;;5068253;28;19946;-66
2023/06/10 13:46:01;;;;;;;;;;;29.70;85.20;;;;;;5056903;28;20320;-66
2023/06/10 13:48:33;;;;;;;;;;;29.40;85.50;;;;;;5055022;28;19925;-66
2023/06/10 13:51:06;;;;;;;;;;;29.30;84.90;;;;;;5060954;28;20360;-65
2023/06/10 13:53:37;;;;;;;;;;;29.40;85.00;;;;;;5073496;28;19925;-66
2023/06/10 13:56:09;;;;;;;;;;;29.30;83.80;;;;;;5070463;28;19924;-66
2023/06/10 13:58:42;;;;;;;;;;;29.40;82.40;;;;;;5069422;28;20123;-66
2023/06/10 14:01:14;;;;;;;;;;;29.30;82.90;;;;;;5063077;28;19946;-66
2023/06/10 14:03:46;;;;;;;;;;;29.40;80.90;;;;;;5060324;28;19928;-65
2023/06/10 14:06:18;;;;;;;;;;;29.40;81.70;;;;;;5061378;28;19994;-66
2023/06/10 14:08:50;;;;;;;;;;;29.70;81.70;;;;;;5060766;28;19956;-66
2023/06/10 14:11:22;;;;;;;;;;;29.90;80.60;;;;;;5069015;28;20422;-66
2023/06/10 14:13:56;;;;;;;;;;;30.10;81.50;;;;;;5072008;28;19924;-66
2023/06/10 14:16:23;;;;;;;;;;;30.20;82.10;;;;;;5054850;28;20463;-66
2023/06/10 14:18:55;;;;;;;;;;;30.20;82.60;;;;;;5052520;28;19929;-66
2023/06/10 14:21:27;;;;;;;;;;;30.10;80.80;;;;;;5059763;28;20011;-66
2023/06/10 14:23:58;;;;;;;;;;;30.20;79.60;;;;;;5061247;28;20012;-66
2023/06/10 14:26:26;;;;;;;;;;;30.20;79.50;;;;;;5063275;28;19925;-66
2023/06/10 14:28:57;;;;;;;;;;;30.10;81.20;;;;;;5061535;28;20426;-66
2023/06/10 14:31:29;;;;;;;;;;;30.00;80.30;;;;;;5062027;28;19929;-66
2023/06/10 14:34:01;;;;;;;;;;;30.00;80.10;;;;;;5057549;28;20312;-66
2023/06/10 14:36:33;;;;;;;;;;;30.20;81.10;;;;;;5057530;28;20024;-66
2023/06/10 14:39:05;;;;;;;;;;;30.30;79.30;;;;;;5052252;28;19932;-66
2023/06/10 14:41:36;;;;;;;;;;;30.50;79.70;;;;;;5053344;28;19924;-66